sensor_id;sensor_type;location;lat;lon;timestamp;P1;P2;P0
27143;PMS1003;14672;50.250;8.312;2023-12-20T00:01:54;9.00;9.00;4.00
27143;PMS1003;14672;50.250;8.312;2023-12-20T00:04:19;6.33;6.33;1.67
27143;PMS1003;14672;50.250;8.312;2023-12-20T00:06:45;5.00;5.00;0.00
27143;PMS1003;14672;50.250;8.312;2023-12-20T00:09:11;5.00;5.00;0.00
27143;PMS1003;14672;50.250;8.312;2023-12-20T00:11:36;5.00;5.00;0.00
27143;PMS1003;14672;50.250;8.312;2023-12-20T00:14:02;5.00;5.00;0.00
27143;PMS1003;14672;50.250;8.312;2023-12-20T00:16:28;7.00;7.00;1.00
27143;PMS1003;14672;50.250;8.312;2023-12-20T00:18:54;5.00;5.00;0.67
27143;PMS1003;14672;50.250;8.312;2023-12-20T00:21:19;5.00;5.00;0.00
27143;PMS1003;14672;50.250;8.312;2023-12-20T00:23:45;5.67;5.67;1.00
27143;PMS1003;14672;50.250;8.312;2023-12-20T00:26:11;5.00;5.00;1.00
27143;PMS1003;14672;50.250;8.312;2023-12-20T00:28:37;7.00;7.00;3.00
27143;PMS1003;14672;50.250;8.312;2023-12-20T00:31:02;4.33;4.33;0.00
27143;PMS1003;14672;50.250;8.312;2023-12-20T00:33:28;5.00;5.00;1.00
27143;PMS1003;14672;50.250;8.312;2023-12-20T00:35:54;7.00;7.00;1.00
27143;PMS1003;14672;50.250;8.312;2023-12-20T00:38:19;5.00;5.00;0.00
27143;PMS1003;14672;50.250;8.312;2023-12-20T00:40:45;5.00;5.00;0.33
27143;PMS1003;14672;50.250;8.312;2023-12-20T00:43:11;5.00;5.00;1.00
27143;PMS1003;14672;50.250;8.312;2023-12-20T00:45:37;5.00;5.00;1.00
27143;PMS1003;14672;50.250;8.312;2023-12-20T00:48:02;6.33;6.33;1.00
27143;PMS1003;14672;50.250;8.312;2023-12-20T00:50:28;5.00;5.00;0.75
27143;PMS1003;14672;50.250;8.312;2023-12-20T00:52:54;3.00;3.00;0.00
27143;PMS1003;14672;50.250;8.312;2023-12-20T00:55:20;3.67;3.67;0.00
27143;PMS1003;14672;50.250;8.312;2023-12-20T00:57:45;3.67;3.67;0.00
27143;PMS1003;14672;50.250;8.312;2023-12-20T01:00:12;5.00;5.00;1.00
27143;PMS1003;14672;50.250;8.312;2023-12-20T01:02:41;5.00;5.00;1.00
27143;PMS1003;14672;50.250;8.312;2023-12-20T01:05:07;3.00;3.00;0.00
27143;PMS1003;14672;50.250;8.312;2023-12-20T01:07:34;3.50;3.50;0.00
27143;PMS1003;14672;50.250;8.312;2023-12-20T01:10:00;6.00;6.00;0.00
27143;PMS1003;14672;50.250;8.312;2023-12-20T01:12:26;5.00;5.00;1.00
27143;PMS1003;14672;50.250;8.312;2023-12-20T01:14:52;5.67;5.67;0.00
27143;PMS1003;14672;50.250;8.312;2023-12-20T01:17:17;5.00;5.00;0.67
27143;PMS1003;14672;50.250;8.312;2023-12-20T01:19:43;5.00;5.00;1.00
27143;PMS1003;14672;50.250;8.312;2023-12-20T01:22:09;5.00;5.00;1.00
27143;PMS1003;14672;50.250;8.312;2023-12-20T01:24:34;5.00;5.00;0.00
27143;PMS1003;14672;50.250;8.312;2023-12-20T01:27:00;5.00;5.00;1.00
27143;PMS1003;14672;50.250;8.312;2023-12-20T01:29:26;5.00;5.00;1.00
27143;PMS1003;14672;50.250;8.312;2023-12-20T01:31:52;5.00;5.00;0.00
27143;PMS1003;14672;50.250;8.312;2023-12-20T01:34:18;5.00;5.00;0.00
27143;PMS1003;14672;50.250;8.312;2023-12-20T01:36:43;3.00;3.00;0.00
27143;PMS1003;14672;50.250;8.312;2023-12-20T01:39:09;7.00;7.00;0.67
27143;PMS1003;14672;50.250;8.312;2023-12-20T01:41:35;5.00;5.00;0.67
27143;PMS1003;14672;50.250;8.312;2023-12-20T01:44:01;5.00;5.00;0.67
27143;PMS1003;14672;50.250;8.312;2023-12-20T01:46:26;5.00;5.00;1.00
27143;PMS1003;14672;50.250;8.312;2023-12-20T01:48:52;3.00;3.00;0.00
27143;PMS1003;14672;50.250;8.312;2023-12-20T01:51:18;5.00;5.00;0.00
27143;PMS1003;14672;50.250;8.312;2023-12-20T01:53:45;5.00;5.00;0.75
27143;PMS1003;14672;50.250;8.312;2023-12-20T01:56:12;4.50;4.50;0.25
27143;PMS1003;14672;50.250;8.312;2023-12-20T01:58:39;5.00;5.00;1.00
27143;PMS1003;14672;50.250;8.312;2023-12-20T02:01:11;5.50;5.50;1.00
27143;PMS1003;14672;50.250;8.312;2023-12-20T02:03:37;4.00;3.00;0.00
27143;PMS1003;14672;50.250;8.312;2023-12-20T02:06:04;5.00;5.00;0.00
27143;PMS1003;14672;50.250;8.312;2023-12-20T02:08:30;5.00;5.00;0.50
27143;PMS1003;14672;50.250;8.312;2023-12-20T02:10:56;5.00;5.00;0.00
27143;PMS1003;14672;50.250;8.312;2023-12-20T02:13:22;5.00;5.00;1.00
27143;PMS1003;14672;50.250;8.312;2023-12-20T02:15:48;5.00;5.00;0.67
27143;PMS1003;14672;50.250;8.312;2023-12-20T02:18:13;5.00;5.00;0.33
27143;PMS1003;14672;50.250;8.312;2023-12-20T02:20:41;5.00;5.00;0.00
27143;PMS1003;14672;50.250;8.312;2023-12-20T02:23:07;5.00;5.00;0.67
27143;PMS1003;14672;50.250;8.312;2023-12-20T02:25:33;7.00;7.00;1.00
27143;PMS1003;14672;50.250;8.312;2023-12-20T02:27:59;5.00;5.00;0.00
27143;PMS1003;14672;50.250;8.312;2023-12-20T02:30:25;7.00;5.00;1.00
27143;PMS1003;14672;50.250;8.312;2023-12-20T02:32:51;5.00;5.00;1.00
27143;PMS1003;14672;50.250;8.312;2023-12-20T02:35:18;6.50;6.50;1.00
27143;PMS1003;14672;50.250;8.312;2023-12-20T02:37:44;5.00;5.00;0.67
27143;PMS1003;14672;50.250;8.312;2023-12-20T02:40:10;5.00;5.00;1.00
27143;PMS1003;14672;50.250;8.312;2023-12-20T02:42:36;7.00;7.00;1.00
27143;PMS1003;14672;50.250;8.312;2023-12-20T02:45:02;8.33;7.00;1.00
27143;PMS1003;14672;50.250;8.312;2023-12-20T02:47:28;7.00;6.50;1.00
27143;PMS1003;14672;50.250;8.312;2023-12-20T02:49:55;5.00;5.00;0.00
27143;PMS1003;14672;50.250;8.312;2023-12-20T02:52:22;5.00;5.00;0.75
27143;PMS1003;14672;50.250;8.312;2023-12-20T02:54:49;5.00;5.00;1.00
27143;PMS1003;14672;50.250;8.312;2023-12-20T02:57:15;3.67;3.67;0.00
27143;PMS1003;14672;50.250;8.312;2023-12-20T02:59:40;3.00;3.00;0.00
27143;PMS1003;14672;50.250;8.312;2023-12-20T03:02:06;7.00;7.00;1.00
27143;PMS1003;14672;50.250;8.312;2023-12-20T03:04:32;5.00;5.00;1.00
27143;PMS1003;14672;50.250;8.312;2023-12-20T03:06:58;5.67;5.67;1.00
27143;PMS1003;14672;50.250;8.312;2023-12-20T03:09:24;5.00;5.00;1.00
27143;PMS1003;14672;50.250;8.312;2023-12-20T03:11:50;7.00;5.50;1.00
27143;PMS1003;14672;50.250;8.312;2023-12-20T03:14:18;6.50;6.00;1.00
27143;PMS1003;14672;50.250;8.312;2023-12-20T03:16:50;7.67;5.00;1.00
27143;PMS1003;14672;50.250;8.312;2023-12-20T03:19:16;9.00;7.00;1.00
27143;PMS1003;14672;50.250;8.312;2023-12-20T03:21:45;6.00;6.00;0.00
27143;PMS1003;14672;50.250;8.312;2023-12-20T03:24:11;5.00;5.00;0.00
27143;PMS1003;14672;50.250;8.312;2023-12-20T03:26:37;5.00;5.00;1.00
27143;PMS1003;14672;50.250;8.312;2023-12-20T03:29:02;5.00;5.00;1.00
27143;PMS1003;14672;50.250;8.312;2023-12-20T03:31:29;8.00;7.00;1.00
27143;PMS1003;14672;50.250;8.312;2023-12-20T03:33:54;7.67;7.00;1.00
27143;PMS1003;14672;50.250;8.312;2023-12-20T03:36:20;7.00;7.00;1.00
27143;PMS1003;14672;50.250;8.312;2023-12-20T03:38:46;5.00;5.00;0.00
27143;PMS1003;14672;50.250;8.312;2023-12-20T03:41:13;8.33;7.00;1.00
27143;PMS1003;14672;50.250;8.312;2023-12-20T03:43:40;5.00;5.00;0.00
27143;PMS1003;14672;50.250;8.312;2023-12-20T03:46:07;7.00;5.00;1.00
27143;PMS1003;14672;50.250;8.312;2023-12-20T03:48:34;6.50;5.50;0.25
27143;PMS1003;14672;50.250;8.312;2023-12-20T03:50:59;5.00;5.00;0.00
27143;PMS1003;14672;50.250;8.312;2023-12-20T03:53:25;5.00;5.00;1.00
27143;PMS1003;14672;50.250;8.312;2023-12-20T03:55:51;5.00;5.00;1.00
27143;PMS1003;14672;50.250;8.312;2023-12-20T03:58:17;9.00;9.00;3.00
27143;PMS1003;14672;50.250;8.312;2023-12-20T04:00:42;5.67;5.00;1.00
27143;PMS1003;14672;50.250;8.312;2023-12-20T04:03:08;8.33;8.33;3.00
27143;PMS1003;14672;50.250;8.312;2023-12-20T04:05:34;7.00;7.00;1.00
27143;PMS1003;14672;50.250;8.312;2023-12-20T04:08:00;7.00;7.00;3.00
27143;PMS1003;14672;50.250;8.312;2023-12-20T04:10:27;10.00;7.50;1.50
27143;PMS1003;14672;50.250;8.312;2023-12-20T04:12:53;7.00;7.00;1.00
27143;PMS1003;14672;50.250;8.312;2023-12-20T04:15:20;9.00;9.00;3.00
27143;PMS1003;14672;50.250;8.312;2023-12-20T04:17:45;9.00;9.00;3.00
27143;PMS1003;14672;50.250;8.312;2023-12-20T04:20:11;9.00;9.00;3.00
27143;PMS1003;14672;50.250;8.312;2023-12-20T04:22:37;11.00;11.00;3.00
27143;PMS1003;14672;50.250;8.312;2023-12-20T04:25:03;11.00;9.00;3.00
27143;PMS1003;14672;50.250;8.312;2023-12-20T04:27:29;11.50;11.00;3.50
27143;PMS1003;14672;50.250;8.312;2023-12-20T04:29:54;13.00;13.00;5.00
27143;PMS1003;14672;50.250;8.312;2023-12-20T04:32:20;13.00;11.00;3.00
27143;PMS1003;14672;50.250;8.312;2023-12-20T04:34:46;12.33;11.00;3.00
27143;PMS1003;14672;50.250;8.312;2023-12-20T04:37:12;11.67;10.33;5.00
27143;PMS1003;14672;50.250;8.312;2023-12-20T04:39:37;11.00;11.00;5.00
27143;PMS1003;14672;50.250;8.312;2023-12-20T04:42:03;9.00;9.00;1.00
27143;PMS1003;14672;50.250;8.312;2023-12-20T04:44:29;10.00;10.00;3.00
27143;PMS1003;14672;50.250;8.312;2023-12-20T04:46:55;12.33;11.00;3.00
27143;PMS1003;14672;50.250;8.312;2023-12-20T04:49:21;11.00;10.50;2.00
27143;PMS1003;14672;50.250;8.312;2023-12-20T04:51:47;12.33;10.33;3.00
27143;PMS1003;14672;50.250;8.312;2023-12-20T04:54:13;11.00;9.00;1.00
27143;PMS1003;14672;50.250;8.312;2023-12-20T04:56:38;10.33;10.33;3.00
27143;PMS1003;14672;50.250;8.312;2023-12-20T04:59:04;11.00;7.00;1.00
27143;PMS1003;14672;50.250;8.312;2023-12-20T05:01:30;10.00;8.50;3.00
27143;PMS1003;14672;50.250;8.312;2023-12-20T05:03:56;9.00;9.00;2.33
27143;PMS1003;14672;50.250;8.312;2023-12-20T05:06:22;17.67;11.67;3.00
27143;PMS1003;14672;50.250;8.312;2023-12-20T05:08:47;15.00;11.00;1.00
27143;PMS1003;14672;50.250;8.312;2023-12-20T05:11:13;9.00;9.00;1.00
27143;PMS1003;14672;50.250;8.312;2023-12-20T05:13:41;9.00;7.50;1.50
27143;PMS1003;14672;50.250;8.312;2023-12-20T05:16:07;7.00;7.00;1.00
27143;PMS1003;14672;50.250;8.312;2023-12-20T05:18:34;10.50;9.00;2.50
27143;PMS1003;14672;50.250;8.312;2023-12-20T05:21:00;8.00;7.00;1.50
27143;PMS1003;14672;50.250;8.312;2023-12-20T05:23:26;10.50;9.50;3.00
27143;PMS1003;14672;50.250;8.312;2023-12-20T05:25:54;9.00;8.50;0.25
27143;PMS1003;14672;50.250;8.312;2023-12-20T05:28:20;9.00;8.33;1.00
27143;PMS1003;14672;50.250;8.312;2023-12-20T05:30:46;7.67;7.67;2.33
27143;PMS1003;14672;50.250;8.312;2023-12-20T05:33:12;5.67;5.00;1.00
27143;PMS1003;14672;50.250;8.312;2023-12-20T05:35:37;6.33;6.33;1.00
27143;PMS1003;14672;50.250;8.312;2023-12-20T05:38:03;9.00;7.67;1.00
27143;PMS1003;14672;50.250;8.312;2023-12-20T05:40:29;15.00;9.67;3.00
27143;PMS1003;14672;50.250;8.312;2023-12-20T05:42:55;6.33;6.33;1.00
27143;PMS1003;14672;50.250;8.312;2023-12-20T05:45:20;7.00;7.00;1.00
27143;PMS1003;14672;50.250;8.312;2023-12-20T05:47:46;11.00;11.00;1.00
27143;PMS1003;14672;50.250;8.312;2023-12-20T05:50:12;7.00;7.00;1.00
27143;PMS1003;14672;50.250;8.312;2023-12-20T05:52:37;11.00;9.67;3.00
27143;PMS1003;14672;50.250;8.312;2023-12-20T05:55:03;7.00;7.00;2.33
27143;PMS1003;14672;50.250;8.312;2023-12-20T05:57:29;8.50;7.00;1.00
27143;PMS1003;14672;50.250;8.312;2023-12-20T05:59:55;7.00;6.33;1.00
27143;PMS1003;14672;50.250;8.312;2023-12-20T06:02:21;7.67;7.67;1.00
27143;PMS1003;14672;50.250;8.312;2023-12-20T06:04:46;7.67;7.00;1.00
27143;PMS1003;14672;50.250;8.312;2023-12-20T06:07:12;7.00;7.00;1.00
27143;PMS1003;14672;50.250;8.312;2023-12-20T06:09:39;8.75;8.25;2.25
27143;PMS1003;14672;50.250;8.312;2023-12-20T06:12:05;9.00;9.00;1.00
27143;PMS1003;14672;50.250;8.312;2023-12-20T06:14:32;7.00;7.00;1.00
27143;PMS1003;14672;50.250;8.312;2023-12-20T06:16:58;8.67;8.67;1.00
27143;PMS1003;14672;50.250;8.312;2023-12-20T06:19:23;7.33;7.00;1.67
27143;PMS1003;14672;50.250;8.312;2023-12-20T06:21:49;8.67;8.67;2.00
27143;PMS1003;14672;50.250;8.312;2023-12-20T06:24:15;8.33;7.00;1.67
27143;PMS1003;14672;50.250;8.312;2023-12-20T06:26:40;7.00;7.00;1.00
27143;PMS1003;14672;50.250;8.312;2023-12-20T06:29:06;11.00;9.00;1.00
27143;PMS1003;14672;50.250;8.312;2023-12-20T06:31:32;7.00;7.00;3.00
27143;PMS1003;14672;50.250;8.312;2023-12-20T06:33:58;8.00;8.00;3.00
27143;PMS1003;14672;50.250;8.312;2023-12-20T06:36:25;10.50;9.50;3.00
27143;PMS1003;14672;50.250;8.312;2023-12-20T06:38:54;7.00;7.00;1.00
27143;PMS1003;14672;50.250;8.312;2023-12-20T06:41:19;7.67;7.00;1.00
27143;PMS1003;14672;50.250;8.312;2023-12-20T06:43:45;11.00;11.00;1.00
27143;PMS1003;14672;50.250;8.312;2023-12-20T06:46:15;10.00;9.00;1.50
27143;PMS1003;14672;50.250;8.312;2023-12-20T06:48:44;7.00;6.50;1.50
27143;PMS1003;14672;50.250;8.312;2023-12-20T06:51:16;13.00;11.00;1.00
27143;PMS1003;14672;50.250;8.312;2023-12-20T06:53:43;16.00;11.50;3.00
27143;PMS1003;14672;50.250;8.312;2023-12-20T06:56:11;11.00;11.00;3.00
27143;PMS1003;14672;50.250;8.312;2023-12-20T06:58:37;15.00;11.00;3.00
27143;PMS1003;14672;50.250;8.312;2023-12-20T07:01:03;9.00;9.00;3.00
27143;PMS1003;14672;50.250;8.312;2023-12-20T07:03:30;8.50;8.50;1.00
27143;PMS1003;14672;50.250;8.312;2023-12-20T07:05:56;13.00;11.00;1.00
27143;PMS1003;14672;50.250;8.312;2023-12-20T07:08:22;19.33;17.00;5.00
27143;PMS1003;14672;50.250;8.312;2023-12-20T07:10:48;19.67;19.00;7.67
27143;PMS1003;14672;50.250;8.312;2023-12-20T07:13:13;17.33;15.00;5.67
27143;PMS1003;14672;50.250;8.312;2023-12-20T07:15:42;11.00;11.00;4.00
27143;PMS1003;14672;50.250;8.312;2023-12-20T07:18:08;9.00;9.00;3.00
27143;PMS1003;14672;50.250;8.312;2023-12-20T07:20:34;9.67;9.67;1.00
27143;PMS1003;14672;50.250;8.312;2023-12-20T07:22:59;10.33;7.00;1.00
27143;PMS1003;14672;50.250;8.312;2023-12-20T07:25:25;10.33;9.67;3.00
27143;PMS1003;14672;50.250;8.312;2023-12-20T07:27:51;13.67;10.33;3.00
27143;PMS1003;14672;50.250;8.312;2023-12-20T07:30:17;17.00;15.00;5.00
27143;PMS1003;14672;50.250;8.312;2023-12-20T07:32:42;9.67;9.67;3.00
27143;PMS1003;14672;50.250;8.312;2023-12-20T07:35:08;7.00;7.00;1.00
27143;PMS1003;14672;50.250;8.312;2023-12-20T07:37:34;12.33;11.00;2.33
27143;PMS1003;14672;50.250;8.312;2023-12-20T07:39:59;9.00;9.00;3.00
27143;PMS1003;14672;50.250;8.312;2023-12-20T07:42:28;9.50;9.00;3.00
27143;PMS1003;14672;50.250;8.312;2023-12-20T07:44:57;11.00;11.00;3.00
27143;PMS1003;14672;50.250;8.312;2023-12-20T07:47:23;10.50;7.00;1.00
27143;PMS1003;14672;50.250;8.312;2023-12-20T07:49:53;7.00;7.00;1.00
27143;PMS1003;14672;50.250;8.312;2023-12-20T07:52:19;15.00;13.00;1.00
27143;PMS1003;14672;50.250;8.312;2023-12-20T07:54:45;11.00;10.33;3.00
27143;PMS1003;14672;50.250;8.312;2023-12-20T07:57:11;7.50;7.50;1.50
27143;PMS1003;14672;50.250;8.312;2023-12-20T07:59:37;9.00;8.00;1.00
27143;PMS1003;14672;50.250;8.312;2023-12-20T08:02:03;7.00;7.00;1.00
27143;PMS1003;14672;50.250;8.312;2023-12-20T08:04:29;9.00;7.00;1.00
27143;PMS1003;14672;50.250;8.312;2023-12-20T08:06:55;9.67;9.67;1.67
27143;PMS1003;14672;50.250;8.312;2023-12-20T08:09:21;10.33;7.67;1.67
27143;PMS1003;14672;50.250;8.312;2023-12-20T08:11:49;11.50;10.00;1.00
27143;PMS1003;14672;50.250;8.312;2023-12-20T08:14:15;9.00;7.00;1.00
27143;PMS1003;14672;50.250;8.312;2023-12-20T08:16:41;10.50;10.50;3.00
27143;PMS1003;14672;50.250;8.312;2023-12-20T08:19:07;9.67;9.67;1.00
27143;PMS1003;14672;50.250;8.312;2023-12-20T08:21:33;9.67;8.33;1.67
27143;PMS1003;14672;50.250;8.312;2023-12-20T08:23:59;9.00;9.00;1.00
27143;PMS1003;14672;50.250;8.312;2023-12-20T08:26:25;9.00;8.00;1.00
27143;PMS1003;14672;50.250;8.312;2023-12-20T08:28:51;9.00;9.00;2.50
27143;PMS1003;14672;50.250;8.312;2023-12-20T08:31:17;8.00;8.00;2.00
27143;PMS1003;14672;50.250;8.312;2023-12-20T08:33:44;6.50;6.50;1.00
27143;PMS1003;14672;50.250;8.312;2023-12-20T08:36:12;12.00;9.00;2.50
27143;PMS1003;14672;50.250;8.312;2023-12-20T08:38:38;8.50;8.50;1.00
27143;PMS1003;14672;50.250;8.312;2023-12-20T08:41:04;8.50;8.50;1.00
27143;PMS1003;14672;50.250;8.312;2023-12-20T08:43:34;7.50;7.50;1.00
27143;PMS1003;14672;50.250;8.312;2023-12-20T08:46:00;10.50;10.50;4.00
27143;PMS1003;14672;50.250;8.312;2023-12-20T08:48:28;10.50;9.00;1.00
27143;PMS1003;14672;50.250;8.312;2023-12-20T08:50:54;10.50;10.50;3.00
27143;PMS1003;14672;50.250;8.312;2023-12-20T08:53:19;6.33;6.33;1.00
27143;PMS1003;14672;50.250;8.312;2023-12-20T08:55:46;9.00;9.00;3.00
27143;PMS1003;14672;50.250;8.312;2023-12-20T08:58:12;10.00;9.00;1.00
27143;PMS1003;14672;50.250;8.312;2023-12-20T09:00:39;10.00;8.50;1.00
27143;PMS1003;14672;50.250;8.312;2023-12-20T09:03:05;10.50;8.50;3.00
27143;PMS1003;14672;50.250;8.312;2023-12-20T09:05:31;9.00;8.33;1.00
27143;PMS1003;14672;50.250;8.312;2023-12-20T09:07:56;9.67;7.00;1.00
27143;PMS1003;14672;50.250;8.312;2023-12-20T09:10:22;7.00;7.00;1.00
27143;PMS1003;14672;50.250;8.312;2023-12-20T09:12:52;8.00;6.50;0.75
27143;PMS1003;14672;50.250;8.312;2023-12-20T09:15:25;8.50;8.50;3.00
27143;PMS1003;14672;50.250;8.312;2023-12-20T09:17:52;12.00;11.00;2.00
27143;PMS1003;14672;50.250;8.312;2023-12-20T09:20:18;8.50;8.50;2.50
27143;PMS1003;14672;50.250;8.312;2023-12-20T09:22:46;11.00;10.00;4.00
27143;PMS1003;14672;50.250;8.312;2023-12-20T09:25:12;9.00;9.00;3.00
27143;PMS1003;14672;50.250;8.312;2023-12-20T09:27:39;11.00;9.50;3.00
27143;PMS1003;14672;50.250;8.312;2023-12-20T09:30:05;9.00;9.00;3.00
27143;PMS1003;14672;50.250;8.312;2023-12-20T09:32:32;7.00;7.00;2.50
27143;PMS1003;14672;50.250;8.312;2023-12-20T09:34:58;11.00;7.67;1.00
27143;PMS1003;14672;50.250;8.312;2023-12-20T09:37:27;9.00;9.00;3.00
27143;PMS1003;14672;50.250;8.312;2023-12-20T09:39:53;7.50;7.50;1.00
27143;PMS1003;14672;50.250;8.312;2023-12-20T09:42:24;12.50;12.50;3.00
27143;PMS1003;14672;50.250;8.312;2023-12-20T09:45:15;15.00;11.50;3.00
27143;PMS1003;14672;50.250;8.312;2023-12-20T09:47:52;16.50;11.00;5.00
27143;PMS1003;14672;50.250;8.312;2023-12-20T09:50:19;11.00;9.50;3.00
27143;PMS1003;14672;50.250;8.312;2023-12-20T09:52:49;7.50;7.50;3.00
27143;PMS1003;14672;50.250;8.312;2023-12-20T09:55:17;11.00;11.00;2.50
27143;PMS1003;14672;50.250;8.312;2023-12-20T09:57:44;11.00;9.00;3.00
27143;PMS1003;14672;50.250;8.312;2023-12-20T10:00:14;13.50;11.00;2.00
27143;PMS1003;14672;50.250;8.312;2023-12-20T10:02:50;16.75;15.00;5.00
27143;PMS1003;14672;50.250;8.312;2023-12-20T10:05:24;13.00;12.00;1.50
27143;PMS1003;14672;50.250;8.312;2023-12-20T10:07:53;13.00;11.00;4.50
27143;PMS1003;14672;50.250;8.312;2023-12-20T10:10:19;16.00;15.00;5.00
27143;PMS1003;14672;50.250;8.312;2023-12-20T10:13:00;13.00;11.00;3.00
27143;PMS1003;14672;50.250;8.312;2023-12-20T10:15:34;13.50;11.50;3.00
27143;PMS1003;14672;50.250;8.312;2023-12-20T10:18:02;12.00;11.00;3.00
27143;PMS1003;14672;50.250;8.312;2023-12-20T10:20:28;14.75;13.00;3.00
27143;PMS1003;14672;50.250;8.312;2023-12-20T10:22:55;10.00;10.00;5.00
27143;PMS1003;14672;50.250;8.312;2023-12-20T10:25:25;12.00;12.00;3.00
27143;PMS1003;14672;50.250;8.312;2023-12-20T10:30:37;10.50;10.50;3.00
27143;PMS1003;14672;50.250;8.312;2023-12-20T10:33:05;13.00;11.00;1.00
27143;PMS1003;14672;50.250;8.312;2023-12-20T10:35:33;13.75;10.50;3.00
27143;PMS1003;14672;50.250;8.312;2023-12-20T10:38:03;10.00;10.00;3.00
27143;PMS1003;14672;50.250;8.312;2023-12-20T10:40:32;11.00;9.00;3.00
27143;PMS1003;14672;50.250;8.312;2023-12-20T10:43:01;10.00;10.00;2.00
27143;PMS1003;14672;50.250;8.312;2023-12-20T10:45:28;7.50;7.00;2.50
27143;PMS1003;14672;50.250;8.312;2023-12-20T10:47:54;12.33;12.33;5.00
27143;PMS1003;14672;50.250;8.312;2023-12-20T10:50:24;12.00;10.50;3.00
27143;PMS1003;14672;50.250;8.312;2023-12-20T10:52:51;12.75;12.75;4.00
27143;PMS1003;14672;50.250;8.312;2023-12-20T10:55:21;11.75;10.75;2.00
27143;PMS1003;14672;50.250;8.312;2023-12-20T10:57:49;13.00;11.75;3.00
27143;PMS1003;14672;50.250;8.312;2023-12-20T11:00:23;14.50;12.25;4.50
27143;PMS1003;14672;50.250;8.312;2023-12-20T11:02:49;15.75;12.00;5.00
27143;PMS1003;14672;50.250;8.312;2023-12-20T11:07:50;11.25;9.50;3.00
27143;PMS1003;14672;50.250;8.312;2023-12-20T11:10:41;13.50;11.00;3.00
27143;PMS1003;14672;50.250;8.312;2023-12-20T11:13:53;9.75;9.25;3.00
27143;PMS1003;14672;50.250;8.312;2023-12-20T11:16:31;9.00;9.00;2.00
27143;PMS1003;14672;50.250;8.312;2023-12-20T11:18:57;11.50;10.75;3.00
27143;PMS1003;14672;50.250;8.312;2023-12-20T11:21:30;10.25;9.00;3.00
27143;PMS1003;14672;50.250;8.312;2023-12-20T11:23:55;12.67;11.00;3.00
27143;PMS1003;14672;50.250;8.312;2023-12-20T11:26:27;12.33;11.33;3.00
27143;PMS1003;14672;50.250;8.312;2023-12-20T11:29:12;13.75;11.75;4.50
27143;PMS1003;14672;50.250;8.312;2023-12-20T11:32:01;14.75;12.75;5.00
27143;PMS1003;14672;50.250;8.312;2023-12-20T11:34:31;8.50;8.00;3.00
27143;PMS1003;14672;50.250;8.312;2023-12-20T11:36:59;10.00;8.50;1.50
27143;PMS1003;14672;50.250;8.312;2023-12-20T11:39:27;11.25;11.25;3.50
27143;PMS1003;14672;50.250;8.312;2023-12-20T11:41:56;10.75;9.50;1.00
27143;PMS1003;14672;50.250;8.312;2023-12-20T11:44:25;12.75;10.75;2.50
27143;PMS1003;14672;50.250;8.312;2023-12-20T11:46:55;10.00;9.50;3.00
27143;PMS1003;14672;50.250;8.312;2023-12-20T11:49:23;9.00;9.00;3.00
27143;PMS1003;14672;50.250;8.312;2023-12-20T11:51:50;8.50;7.50;1.00
27143;PMS1003;14672;50.250;8.312;2023-12-20T11:54:16;9.25;9.25;4.00
27143;PMS1003;14672;50.250;8.312;2023-12-20T11:56:42;15.00;14.00;3.00
27143;PMS1003;14672;50.250;8.312;2023-12-20T11:59:08;14.33;11.67;3.00
27143;PMS1003;14672;50.250;8.312;2023-12-20T12:01:34;10.50;9.00;3.00
27143;PMS1003;14672;50.250;8.312;2023-12-20T12:04:04;13.75;12.25;3.50
27143;PMS1003;14672;50.250;8.312;2023-12-20T12:06:30;9.00;9.00;2.00
27143;PMS1003;14672;50.250;8.312;2023-12-20T12:08:56;13.00;11.33;4.33
27143;PMS1003;14672;50.250;8.312;2023-12-20T12:11:22;11.00;9.00;1.00
27143;PMS1003;14672;50.250;8.312;2023-12-20T12:13:48;9.50;9.50;3.00
27143;PMS1003;14672;50.250;8.312;2023-12-20T12:16:18;9.50;9.50;3.00
27143;PMS1003;14672;50.250;8.312;2023-12-20T12:18:45;8.50;8.50;1.00
27143;PMS1003;14672;50.250;8.312;2023-12-20T12:21:18;10.00;9.33;4.33
27143;PMS1003;14672;50.250;8.312;2023-12-20T12:23:45;9.50;9.50;3.00
27143;PMS1003;14672;50.250;8.312;2023-12-20T12:26:11;13.00;11.00;3.00
27143;PMS1003;14672;50.250;8.312;2023-12-20T12:28:39;9.00;8.33;2.33
27143;PMS1003;14672;50.250;8.312;2023-12-20T12:31:06;10.25;9.00;3.00
27143;PMS1003;14672;50.250;8.312;2023-12-20T12:33:33;10.00;10.00;3.00
27143;PMS1003;14672;50.250;8.312;2023-12-20T12:36:00;8.50;8.00;2.00
27143;PMS1003;14672;50.250;8.312;2023-12-20T12:38:26;8.00;7.50;1.50
27143;PMS1003;14672;50.250;8.312;2023-12-20T12:40:52;12.75;9.00;3.00
27143;PMS1003;14672;50.250;8.312;2023-12-20T12:43:19;10.50;9.00;3.50
27143;PMS1003;14672;50.250;8.312;2023-12-20T12:45:47;12.75;11.00;3.00
27143;PMS1003;14672;50.250;8.312;2023-12-20T12:48:14;10.00;10.00;3.00
27143;PMS1003;14672;50.250;8.312;2023-12-20T12:50:40;11.50;11.50;2.50
27143;PMS1003;14672;50.250;8.312;2023-12-20T12:53:05;9.00;9.00;3.00
27143;PMS1003;14672;50.250;8.312;2023-12-20T12:55:31;9.00;9.00;3.00
27143;PMS1003;14672;50.250;8.312;2023-12-20T12:57:59;12.25;11.00;3.00
27143;PMS1003;14672;50.250;8.312;2023-12-20T13:00:24;10.00;10.00;3.00
27143;PMS1003;14672;50.250;8.312;2023-12-20T13:02:51;11.75;10.75;4.00
27143;PMS1003;14672;50.250;8.312;2023-12-20T13:05:17;15.33;14.00;5.00
27143;PMS1003;14672;50.250;8.312;2023-12-20T13:07:43;12.00;11.00;5.00
27143;PMS1003;14672;50.250;8.312;2023-12-20T13:10:10;15.50;11.00;3.00
27143;PMS1003;14672;50.250;8.312;2023-12-20T13:12:36;22.75;18.50;9.00
27143;PMS1003;14672;50.250;8.312;2023-12-20T13:15:02;12.00;11.33;4.33
27143;PMS1003;14672;50.250;8.312;2023-12-20T13:17:31;11.50;11.50;5.00
27143;PMS1003;14672;50.250;8.312;2023-12-20T13:19:57;12.00;12.00;5.00
27143;PMS1003;14672;50.250;8.312;2023-12-20T13:22:23;14.00;14.00;7.67
27143;PMS1003;14672;50.250;8.312;2023-12-20T13:24:49;19.00;19.00;10.33
27143;PMS1003;14672;50.250;8.312;2023-12-20T13:27:14;14.00;13.00;7.00
27143;PMS1003;14672;50.250;8.312;2023-12-20T13:29:40;42.33;37.33;22.00
27143;PMS1003;14672;50.250;8.312;2023-12-20T13:32:06;30.00;28.50;14.00
27143;PMS1003;14672;50.250;8.312;2023-12-20T13:34:32;26.67;22.67;13.33
27143;PMS1003;14672;50.250;8.312;2023-12-20T13:36:58;45.67;39.67;20.67
27143;PMS1003;14672;50.250;8.312;2023-12-20T13:39:24;30.50;28.50;14.50
27143;PMS1003;14672;50.250;8.312;2023-12-20T13:41:49;89.67;69.67;36.33
27143;PMS1003;14672;50.250;8.312;2023-12-20T13:44:15;61.33;49.67;25.00
27143;PMS1003;14672;50.250;8.312;2023-12-20T13:46:41;54.33;43.67;22.00
27143;PMS1003;14672;50.250;8.312;2023-12-20T13:49:07;23.33;22.00;9.33
27143;PMS1003;14672;50.250;8.312;2023-12-20T13:51:33;22.33;20.33;9.00
27143;PMS1003;14672;50.250;8.312;2023-12-20T13:53:59;20.25;19.25;10.00
27143;PMS1003;14672;50.250;8.312;2023-12-20T13:56:25;20.00;18.00;9.00
27143;PMS1003;14672;50.250;8.312;2023-12-20T13:58:51;16.75;16.25;5.50
27143;PMS1003;14672;50.250;8.312;2023-12-20T14:01:17;13.67;13.00;5.00
27143;PMS1003;14672;50.250;8.312;2023-12-20T14:03:43;18.67;13.67;5.00
27143;PMS1003;14672;50.250;8.312;2023-12-20T14:06:08;13.00;13.00;6.33
27143;PMS1003;14672;50.250;8.312;2023-12-20T14:08:34;15.00;15.00;7.50
27143;PMS1003;14672;50.250;8.312;2023-12-20T14:11:01;11.75;11.75;5.50
27143;PMS1003;14672;50.250;8.312;2023-12-20T14:13:27;14.00;13.50;6.00
27143;PMS1003;14672;50.250;8.312;2023-12-20T14:15:53;13.33;13.33;4.33
27143;PMS1003;14672;50.250;8.312;2023-12-20T14:18:19;16.00;13.75;6.00